TimeCDT,TemperatureF,Dew PointF,Humidity,Sea Level PressureIn,VisibilityMPH,Wind Direction,Wind SpeedMPH,Gust SpeedMPH,PrecipitationIn,Events,Conditions,WindDirDegrees,DateUTC
12:15 AM,62.1,41.2,46,29.95,10.0,NNW,13.8,20.7,N/A,,Clear,330,2012-10-04 05:15:00
12:35 AM,60.4,40.1,47,29.96,10.0,NNW,20.7,25.3,N/A,,Clear,330,2012-10-04 05:35:00
12:55 AM,57.6,40.5,53,29.98,10.0,NW,19.6,27.6,N/A,,Clear,320,2012-10-04 05:55:00
1:15 AM,55.8,40.5,56,29.98,10.0,NW,20.7,31.1,N/A,,Clear,320,2012-10-04 06:15:00
1:35 AM,54.9,40.5,58,30.00,10.0,NW,21.9,35.7,N/A,,Clear,320,2012-10-04 06:35:00
1:55 AM,53.6,40.5,61,30.01,10.0,NW,16.1,25.3,N/A,,Clear,320,2012-10-04 06:55:00
2:15 AM,53.1,40.5,62,30.04,10.0,WNW,15.0,23.0,N/A,,Clear,300,2012-10-04 07:15:00
2:35 AM,53.2,40.5,62,30.04,10.0,NW,13.8,27.6,N/A,,Clear,310,2012-10-04 07:35:00
2:55 AM,53.1,41.0,64,30.07,10.0,WNW,13.8,18.4,N/A,Rain-Thunderstorm,Light Thunderstorms and Rain,300,2012-10-04 07:55:00
3:15 AM,51.1,43.5,75,30.05,10.0,NW,15.0,23.0,0.02,Rain-Thunderstorm,Heavy Thunderstorms and Rain,310,2012-10-04 08:15:00
3:35 AM,50.4,44.2,80,30.08,10.0,WNW,13.8,20.7,0.05,Rain-Thunderstorm,Light Thunderstorms and Rain,290,2012-10-04 08:35:00
3:55 AM,50.2,43.7,78,30.03,5.0,NNW,23.0,32.2,0.08,Rain-Thunderstorm,Heavy Thunderstorms and Rain,340,2012-10-04 08:55:00
4:15 AM,48.6,43.9,84,30.03,10.0,NNW,15.0,29.9,N/A,Rain-Thunderstorm,Light Thunderstorms and Rain,330,2012-10-04 09:15:00
4:35 AM,48.4,43.0,82,30.06,10.0,NW,18.4,25.3,N/A,,Mostly Cloudy,320,2012-10-04 09:35:00
4:55 AM,47.8,41.5,79,30.08,10.0,NW,21.9,28.8,N/A,,Overcast,310,2012-10-04 09:55:00
5:15 AM,47.7,41.4,79,30.11,10.0,WNW,16.1,26.5,N/A,,Overcast,300,2012-10-04 10:15:00
5:35 AM,47.1,41.2,80,30.11,10.0,NW,15.0,23.0,N/A,Rain,Light Rain,310,2012-10-04 10:35:00
5:55 AM,46.9,39.9,77,30.10,10.0,NW,21.9,31.1,N/A,,Overcast,320,2012-10-04 10:55:00
6:15 AM,46.8,40.1,78,30.11,10.0,NW,19.6,26.5,N/A,,Overcast,310,2012-10-04 11:15:00
6:35 AM,46.2,38.7,75,30.11,10.0,NW,20.7,26.5,N/A,Thunderstorm,Overcast,320,2012-10-04 11:35:00
6:55 AM,45.9,38.5,75,30.13,10.0,NW,10.4,20.7,N/A,,Overcast,310,2012-10-04 11:55:00
7:15 AM,45.7,37.8,74,30.14,10.0,NW,20.7,28.8,N/A,,Overcast,320,2012-10-04 12:15:00
7:35 AM,44.8,36.1,72,30.15,10.0,NW,19.6,27.6,N/A,,Mostly Cloudy,320,2012-10-04 12:35:00
7:55 AM,43.9,36.1,74,30.17,10.0,NW,11.5,19.6,N/A,,Scattered Clouds,310,2012-10-04 12:55:00
8:15 AM,43.7,36.0,74,30.17,10.0,NW,13.8,21.9,N/A,Thunderstorm,Scattered Clouds,320,2012-10-04 13:15:00
8:35 AM,44.4,36.3,73,30.18,10.0,NW,12.7,17.3,N/A,Thunderstorm,Mostly Cloudy,310,2012-10-04 13:35:00
8:55 AM,45.0,35.8,70,30.18,10.0,NW,16.1,23.0,N/A,,Mostly Cloudy,320,2012-10-04 13:55:00
9:15 AM,45.7,35.2,67,30.19,10.0,NW,21.9,28.8,N/A,Thunderstorm,Overcast,320,2012-10-04 14:15:00
9:35 AM,45.7,34.9,66,30.21,10.0,NW,17.3,27.6,N/A,,Overcast,320,2012-10-04 14:35:00
9:55 AM,46.2,34.3,63,30.21,10.0,NW,18.4,27.6,N/A,Thunderstorm,Overcast,310,2012-10-04 14:55:00
10:15 AM,46.4,34.7,64,30.22,10.0,NW,19.6,26.5,N/A,,Mostly Cloudy,310,2012-10-04 15:15:00
10:35 AM,46.9,34.7,62,30.23,10.0,NW,18.4,25.3,N/A,,Mostly Cloudy,310,2012-10-04 15:35:00
10:55 AM,47.8,34.7,60,30.23,10.0,NW,13.8,24.2,N/A,,Mostly Cloudy,310,2012-10-04 15:55:00
11:35 AM,48.9,34.3,57,30.25,10.0,NNW,19.6,26.5,N/A,,Mostly Cloudy,330,2012-10-04 16:35:00
11:55 AM,50.4,33.6,53,30.26,10.0,NW,17.3,25.3,N/A,,Mostly Cloudy,310,2012-10-04 16:55:00
12:15 PM,51.1,33.3,51,30.26,10.0,NNW,17.3,25.3,N/A,,Mostly Cloudy,330,2012-10-04 17:15:00
12:35 PM,52.0,33.4,49,30.26,10.0,NW,15.0,23.0,N/A,,Mostly Cloudy,310,2012-10-04 17:35:00
12:55 PM,52.3,32.7,47,30.26,10.0,WNW,16.1,21.9,N/A,,Scattered Clouds,300,2012-10-04 17:55:00
1:15 PM,53.2,32.9,46,30.26,10.0,NW,17.3,25.3,N/A,,Scattered Clouds,320,2012-10-04 18:15:00
1:35 PM,54.7,32.4,43,30.25,10.0,WNW,17.3,24.2,N/A,,Scattered Clouds,300,2012-10-04 18:35:00
1:55 PM,54.9,32.4,42,30.25,10.0,NW,13.8,24.2,N/A,,Scattered Clouds,310,2012-10-04 18:55:00
2:15 PM,55.4,32.2,41,30.25,10.0,NW,19.6,-,N/A,,Scattered Clouds,320,2012-10-04 19:15:00
2:35 PM,55.2,31.8,41,30.24,10.0,NW,13.8,24.2,N/A,,Scattered Clouds,320,2012-10-04 19:35:00
2:55 PM,55.9,31.5,39,30.24,10.0,NW,10.4,24.2,N/A,,Clear,310,2012-10-04 19:55:00
3:15 PM,56.5,31.3,38,30.23,10.0,NW,12.7,21.9,N/A,,Clear,320,2012-10-04 20:15:00
3:35 PM,57.0,31.3,38,30.23,10.0,NW,12.7,19.6,N/A,,Clear,320,2012-10-04 20:35:00
3:55 PM,56.7,30.9,38,30.23,10.0,NW,13.8,20.7,N/A,,Clear,320,2012-10-04 20:55:00
4:15 PM,56.7,30.7,37,30.23,10.0,NW,13.8,23.0,N/A,,Clear,310,2012-10-04 21:15:00
4:35 PM,56.8,30.2,36,30.24,10.0,NNW,15.0,20.7,N/A,,Clear,330,2012-10-04 21:35:00
5:15 PM,54.9,30.4,39,30.24,10.0,NW,11.5,19.6,N/A,,Clear,310,2012-10-04 22:15:00
5:35 PM,55.0,30.7,40,30.23,10.0,NW,18.4,24.2,N/A,,Clear,320,2012-10-04 22:35:00
5:55 PM,54.0,30.7,41,30.24,10.0,NNW,10.4,20.7,N/A,,Clear,340,2012-10-04 22:55:00
6:15 PM,53.1,30.2,42,30.24,10.0,NNW,11.5,-,N/A,,Clear,330,2012-10-04 23:15:00
6:35 PM,52.0,30.9,45,30.24,10.0,NNW,12.7,17.3,N/A,,Clear,330,2012-10-04 23:35:00
6:55 PM,51.3,30.2,44,30.25,10.0,NW,8.1,-,N/A,,Clear,320,2012-10-04 23:55:00
7:15 PM,50.2,30.9,48,30.26,10.0,NW,5.8,-,N/A,,Clear,310,2012-10-05 00:15:00
7:35 PM,50.0,31.1,48,30.26,10.0,NW,5.8,-,N/A,,Clear,310,2012-10-05 00:35:00
7:55 PM,49.3,31.1,50,30.27,10.0,NW,6.9,-,N/A,,Clear,310,2012-10-05 00:55:00
8:15 PM,48.6,31.6,52,30.27,10.0,NW,4.6,-,N/A,,Clear,320,2012-10-05 01:15:00
8:35 PM,48.0,32.0,54,30.28,10.0,NW,5.8,-,N/A,,Clear,320,2012-10-05 01:35:00
8:55 PM,48.4,31.6,52,30.28,10.0,NNW,6.9,-,N/A,,Clear,330,2012-10-05 01:55:00
9:15 PM,47.8,31.6,53,30.28,10.0,NNW,6.9,-,N/A,,Clear,330,2012-10-05 02:15:00
9:35 PM,47.5,31.6,54,30.29,10.0,NW,5.8,-,N/A,,Clear,320,2012-10-05 02:35:00
9:55 PM,46.9,32.0,56,30.31,10.0,NW,5.8,-,N/A,,Clear,310,2012-10-05 02:55:00
10:15 PM,46.4,32.0,57,30.31,10.0,NW,8.1,-,N/A,,Clear,320,2012-10-05 03:15:00
10:35 PM,46.0,31.3,56,30.30,10.0,NW,9.2,-,N/A,,Clear,320,2012-10-05 03:35:00
10:55 PM,45.7,31.1,57,30.30,10.0,NNW,10.4,-,N/A,,Clear,330,2012-10-05 03:55:00
11:15 PM,45.7,30.6,56,30.30,10.0,NNW,12.7,-,N/A,,Clear,340,2012-10-05 04:15:00
11:55 PM,43.7,30.2,59,30.30,10.0,NNW,9.2,-,N/A,,Clear,330,2012-10-05 04:55:00